Time;durP1;ratioP1;P1;durP2;ratioP2;P2;SDS_P1;SDS_P2;PMS_P1;PMS_P2;Temp;Humidity;BMP_temperature;BMP_pressure;BME280_temperature;BME280_humidity;BME280_pressure;Samples;Min_cycle;Max_cycle;Signal;HPM_P1;HPM_P2
2021/11/15 00:01:43;;;;;;;50.65;35.92;;;7.20;1.00;;;;;;5115180;27;20207;-85
2021/11/15 00:04:10;;;;;;;61.97;39.00;;;7.20;1.00;;;;;;5117997;27;20286;-85
2021/11/15 00:06:37;;;;;;;57.03;38.20;;;7.20;1.00;;;;;;5113171;27;20272;-82
2021/11/15 00:09:04;;;;;;;59.95;39.55;;;7.20;1.00;;;;;;5115523;27;20234;-83
2021/11/15 00:11:32;;;;;;;56.60;36.83;;;7.20;1.00;;;;;;5116124;27;20722;-82
2021/11/15 00:13:59;;;;;;;63.08;38.03;;;7.20;1.00;;;;;;5115441;27;20236;-83
2021/11/15 00:16:26;;;;;;;55.88;37.50;;;7.20;1.00;;;;;;5118687;27;20227;-83
2021/11/15 00:18:53;;;;;;;57.10;37.80;;;7.20;1.00;;;;;;5112849;27;20216;-83
2021/11/15 00:21:20;;;;;;;51.08;35.92;;;7.20;1.00;;;;;;5126663;27;20964;-82
2021/11/15 00:23:47;;;;;;;55.42;36.83;;;7.20;1.00;;;;;;5113418;27;20781;-84
2021/11/15 00:26:13;;;;;;;56.95;38.08;;;7.20;1.00;;;;;;5112790;27;20220;-83
2021/11/15 00:28:42;;;;;;;60.75;38.55;;;7.20;1.00;;;;;;5112677;27;20229;-83
2021/11/15 00:31:08;;;;;;;61.25;39.20;;;7.20;1.00;;;;;;5111215;27;20214;-80
2021/11/15 00:33:35;;;;;;;57.17;39.10;;;7.30;1.00;;;;;;5111058;27;20238;-82
2021/11/15 00:36:03;;;;;;;59.80;38.22;;;7.30;1.00;;;;;;5112170;27;20291;-83
2021/11/15 00:38:30;;;;;;;58.58;38.67;;;7.40;1.00;;;;;;5110272;27;20234;-83
2021/11/15 00:40:56;;;;;;;57.70;38.20;;;7.40;1.00;;;;;;5112103;27;21312;-83
2021/11/15 00:43:23;;;;;;;58.55;37.90;;;7.50;1.00;;;;;;5095210;27;20948;-84
2021/11/15 00:45:51;;;;;;;54.50;37.65;;;7.50;1.00;;;;;;5111586;27;20594;-83
2021/11/15 00:48:18;;;;;;;60.10;38.20;;;7.50;1.00;;;;;;5113318;27;20861;-82
2021/11/15 00:50:45;;;;;;;52.85;36.05;;;7.50;1.00;;;;;;5112706;27;20230;-83
2021/11/15 00:53:12;;;;;;;60.63;37.30;;;7.60;1.00;;;;;;5114670;27;20279;-81
2021/11/15 00:55:39;;;;;;;52.80;37.20;;;7.60;1.00;;;;;;5111354;27;20255;-82
2021/11/15 00:58:06;;;;;;;63.95;37.72;;;7.60;1.00;;;;;;5132439;27;20212;-81
2021/11/15 01:00:35;;;;;;;54.70;36.28;;;7.60;1.00;;;;;;5133333;27;20212;-82
2021/11/15 01:03:06;;;;;;;51.92;37.17;;;7.60;1.00;;;;;;5112323;27;20248;-85
2021/11/15 01:05:34;;;;;;;55.20;37.38;;;7.60;1.00;;;;;;5098810;27;20800;-82
2021/11/15 01:08:01;;;;;;;56.55;35.42;;;7.50;1.00;;;;;;5113780;27;20215;-83
2021/11/15 01:10:28;;;;;;;60.10;37.42;;;7.50;1.00;;;;;;5117982;27;20223;-84
2021/11/15 01:12:56;;;;;;;58.80;37.55;;;7.50;1.00;;;;;;5114356;27;20404;-84
2021/11/15 01:15:28;;;;;;;53.83;35.97;;;7.50;1.00;;;;;;5112484;27;20211;-84
2021/11/15 01:17:56;;;;;;;56.53;36.13;;;7.50;1.00;;;;;;5115192;27;20278;-83
2021/11/15 01:20:28;;;;;;;54.22;35.35;;;7.40;1.00;;;;;;5115380;27;20226;-84
2021/11/15 01:22:56;;;;;;;49.75;34.35;;;7.30;1.00;;;;;;5135954;27;20229;-82
2021/11/15 01:25:23;;;;;;;51.63;35.55;;;7.30;1.00;;;;;;5125941;27;20223;-84
2021/11/15 01:27:50;;;;;;;49.60;34.50;;;7.30;1.00;;;;;;5108948;27;20238;-83
2021/11/15 01:30:18;;;;;;;52.38;35.63;;;7.30;1.00;;;;;;5115444;27;20825;-83
2021/11/15 01:32:46;;;;;;;54.72;34.63;;;7.20;1.00;;;;;;5112864;27;20247;-84
2021/11/15 01:35:27;;;;;;;49.53;34.95;;;7.20;1.00;;;;;;5114525;27;20226;-85
2021/11/15 01:37:56;;;;;;;55.65;34.92;;;7.20;1.00;;;;;;5106790;27;22261;-83
2021/11/15 01:40:24;;;;;;;54.40;34.85;;;7.20;1.00;;;;;;5113105;27;20219;-81
2021/11/15 01:42:52;;;;;;;53.97;34.70;;;7.20;1.00;;;;;;5112731;27;20227;-84
2021/11/15 01:45:23;;;;;;;52.80;34.47;;;7.20;1.00;;;;;;5115236;27;21142;-83
2021/11/15 01:47:51;;;;;;;56.38;34.83;;;7.30;1.00;;;;;;5112704;27;20221;-83
2021/11/15 01:50:18;;;;;;;50.40;33.35;;;7.30;1.00;;;;;;5089031;27;20218;-84
2021/11/15 01:52:48;;;;;;;52.67;33.53;;;7.40;1.00;;;;;;5100318;27;20585;-84
2021/11/15 01:55:16;;;;;;;47.50;33.10;;;7.30;1.00;;;;;;5097567;27;20230;-85
2021/11/15 01:57:44;;;;;;;48.45;33.40;;;7.30;1.00;;;;;;5115831;27;20235;-83
2021/11/15 02:00:14;;;;;;;52.42;36.13;;;7.40;1.00;;;;;;5117925;27;20236;-84
2021/11/15 02:02:42;;;;;;;50.13;33.72;;;7.30;1.00;;;;;;5113382;27;20787;-84
2021/11/15 02:05:10;;;;;;;51.33;35.20;;;7.40;1.00;;;;;;5119590;27;20258;-83
2021/11/15 02:07:37;;;;;;;47.55;33.55;;;7.40;1.00;;;;;;5115157;27;21179;-84
2021/11/15 02:10:08;;;;;;;49.40;33.60;;;7.40;1.00;;;;;;5116611;27;20324;-83
2021/11/15 02:12:35;;;;;;;56.08;34.25;;;7.40;1.00;;;;;;5095239;27;20783;-84
2021/11/15 02:15:02;;;;;;;46.78;33.75;;;7.50;1.00;;;;;;5112954;27;20305;-84
2021/11/15 02:17:32;;;;;;;51.00;33.55;;;7.40;1.00;;;;;;5095229;27;20734;-83
2021/11/15 02:20:04;;;;;;;51.13;36.15;;;7.40;1.00;;;;;;5114228;27;20224;-84
2021/11/15 02:22:32;;;;;;;47.72;32.03;;;7.40;1.00;;;;;;5121712;27;20227;-84
2021/11/15 02:25:00;;;;;;;52.47;35.13;;;7.30;1.00;;;;;;5114304;27;20226;-85
2021/11/15 02:27:27;;;;;;;55.88;36.53;;;7.30;1.00;;;;;;5116201;27;20715;-85
2021/11/15 02:29:53;;;;;;;52.33;33.70;;;7.30;1.00;;;;;;5111358;27;20773;-84
2021/11/15 02:32:20;;;;;;;54.05;34.85;;;7.30;1.00;;;;;;5117187;27;20230;-83
2021/11/15 02:34:48;;;;;;;46.40;33.88;;;7.30;1.00;;;;;;5119004;27;20219;-86
2021/11/15 02:37:14;;;;;;;54.72;33.80;;;7.30;1.00;;;;;;5116077;27;20218;-87
2021/11/15 02:39:42;;;;;;;48.50;32.75;;;7.30;1.00;;;;;;5111426;27;20718;-84
2021/11/15 02:42:11;;;;;;;47.67;33.03;;;7.30;1.00;;;;;;5112981;27;20230;-85
2021/11/15 02:44:38;;;;;;;54.97;34.50;;;7.40;1.00;;;;;;5098510;27;20818;-84
2021/11/15 02:47:07;;;;;;;52.58;35.38;;;7.30;1.00;;;;;;5099721;27;20234;-85
2021/11/15 02:49:35;;;;;;;52.75;32.63;;;7.30;1.00;;;;;;5117697;27;20218;-85
2021/11/15 02:52:01;;;;;;;48.10;32.70;;;7.40;1.00;;;;;;5115797;27;20281;-85
2021/11/15 02:54:28;;;;;;;47.65;34.00;;;7.30;1.00;;;;;;5115760;27;20780;-85
2021/11/15 02:56:56;;;;;;;56.65;36.28;;;7.30;1.00;;;;;;5113429;27;20219;-84
2021/11/15 02:59:23;;;;;;;51.75;32.35;;;7.30;1.00;;;;;;5115940;27;20784;-82
2021/11/15 03:01:50;;;;;;;45.75;33.25;;;7.30;1.00;;;;;;5114625;27;20285;-82
2021/11/15 03:04:17;;;;;;;48.95;32.60;;;7.20;1.00;;;;;;5117404;27;20715;-82
2021/11/15 03:06:44;;;;;;;47.95;32.85;;;7.20;1.00;;;;;;5116911;27;20226;-83
2021/11/15 03:09:11;;;;;;;51.22;33.53;;;7.20;1.00;;;;;;5116159;27;20239;-84
2021/11/15 03:11:38;;;;;;;50.35;33.20;;;7.20;1.00;;;;;;5116834;27;20296;-83
2021/11/15 03:14:06;;;;;;;48.55;34.35;;;7.20;1.00;;;;;;5120466;27;20235;-86
2021/11/15 03:16:33;;;;;;;49.78;33.95;;;7.20;1.00;;;;;;5103289;27;20227;-85
2021/11/15 03:19:00;;;;;;;50.60;35.90;;;7.20;1.00;;;;;;5115543;27;20322;-82
2021/11/15 03:21:27;;;;;;;49.97;34.67;;;7.20;1.00;;;;;;5117881;27;20230;-83
2021/11/15 03:23:56;;;;;;;48.15;33.17;;;7.10;1.00;;;;;;5121381;27;20239;-85
2021/11/15 03:26:25;;;;;;;48.38;32.75;;;7.20;1.00;;;;;;5109890;27;20243;-82
2021/11/15 03:28:53;;;;;;;51.17;32.55;;;7.20;1.00;;;;;;5128447;27;20269;-84
2021/11/15 03:31:24;;;;;;;47.05;34.58;;;7.20;1.00;;;;;;5103442;27;20304;-84
2021/11/15 03:33:53;;;;;;;49.70;32.97;;;7.20;1.00;;;;;;5127104;27;20224;-83
2021/11/15 03:36:20;;;;;;;44.90;31.25;;;7.20;1.00;;;;;;5134664;27;20218;-83
2021/11/15 03:38:47;;;;;;;50.80;34.15;;;7.10;1.00;;;;;;5121600;27;20278;-86
2021/11/15 03:41:14;;;;;;;48.47;35.30;;;7.10;1.00;;;;;;5093074;27;20231;-85
2021/11/15 03:43:41;;;;;;;51.63;36.00;;;7.20;1.00;;;;;;5117377;27;20319;-84
2021/11/15 03:46:09;;;;;;;50.25;34.50;;;7.10;1.00;;;;;;5094639;27;20219;-84
2021/11/15 03:48:37;;;;;;;51.83;36.33;;;7.10;1.00;;;;;;5102126;27;20239;-83
2021/11/15 03:51:04;;;;;;;49.22;33.60;;;7.10;1.00;;;;;;5113920;27;20248;-85
2021/11/15 03:53:34;;;;;;;54.83;36.33;;;7.10;1.00;;;;;;5114326;27;20238;-86
2021/11/15 03:56:01;;;;;;;53.80;35.65;;;7.20;1.00;;;;;;5116209;27;20223;-84
2021/11/15 03:58:28;;;;;;;51.20;34.75;;;7.20;1.00;;;;;;5098644;27;20317;-85
2021/11/15 04:00:58;;;;;;;50.17;33.55;;;7.10;1.00;;;;;;5115831;27;20231;-84
2021/11/15 04:03:31;;;;;;;50.95;35.90;;;7.10;1.00;;;;;;5113968;27;20738;-84
2021/11/15 04:06:03;;;;;;;51.35;35.85;;;7.10;1.00;;;;;;5114535;27;20296;-85
2021/11/15 04:08:31;;;;;;;53.53;36.45;;;7.10;1.00;;;;;;5120401;27;20220;-84
2021/11/15 04:10:59;;;;;;;56.47;38.35;;;7.10;1.00;;;;;;5116553;27;20246;-83
2021/11/15 04:13:30;;;;;;;50.55;34.80;;;7.10;1.00;;;;;;5105813;27;20264;-84
2021/11/15 04:16:00;;;;;;;54.15;35.65;;;7.10;1.00;;;;;;5110730;27;20297;-84
2021/11/15 04:18:30;;;;;;;56.42;38.03;;;7.00;1.00;;;;;;5114829;27;20776;-85
2021/11/15 04:20:59;;;;;;;52.60;35.20;;;7.00;1.00;;;;;;5114028;27;20229;-85
2021/11/15 04:23:27;;;;;;;56.15;37.17;;;7.10;1.00;;;;;;5099117;27;20224;-84
2021/11/15 04:25:54;;;;;;;54.53;35.42;;;7.00;1.00;;;;;;5096991;27;20235;-86
2021/11/15 04:28:21;;;;;;;56.67;36.40;;;7.00;1.00;;;;;;5114627;27;20274;-84
2021/11/15 04:30:48;;;;;;;54.33;36.33;;;7.00;1.00;;;;;;5095289;27;20223;-84
2021/11/15 04:33:15;;;;;;;56.53;37.28;;;7.00;1.00;;;;;;5115626;27;20233;-84
2021/11/15 04:35:42;;;;;;;50.78;36.33;;;7.00;1.00;;;;;;5099377;27;20295;-83
2021/11/15 04:38:11;;;;;;;54.75;36.53;;;7.10;1.00;;;;;;5113194;27;20216;-84
2021/11/15 04:40:38;;;;;;;50.17;34.70;;;7.10;1.00;;;;;;5113517;27;20223;-86
2021/11/15 04:43:06;;;;;;;52.83;35.38;;;7.10;1.00;;;;;;5112352;27;20218;-85
2021/11/15 04:45:33;;;;;;;59.10;38.90;;;7.10;1.00;;;;;;5117849;27;20227;-84
2021/11/15 04:48:00;;;;;;;54.45;36.00;;;7.00;1.00;;;;;;5115421;27;21159;-85
2021/11/15 04:50:27;;;;;;;49.72;35.80;;;7.00;1.00;;;;;;5100432;27;20227;-84
2021/11/15 04:52:55;;;;;;;48.10;34.75;;;7.00;1.00;;;;;;5112618;27;20231;-85
2021/11/15 04:55:24;;;;;;;54.28;35.85;;;7.00;1.00;;;;;;5101009;27;20831;-85
2021/11/15 04:57:53;;;;;;;49.33;35.50;;;7.00;1.00;;;;;;5110740;27;20287;-83
2021/11/15 05:00:27;;;;;;;48.95;34.65;;;7.00;1.00;;;;;;5112538;27;20242;-84
2021/11/15 05:02:57;;;;;;;56.40;35.10;;;7.00;1.00;;;;;;5126546;27;20273;-84
2021/11/15 05:05:25;;;;;;;52.53;38.80;;;6.90;1.00;;;;;;5127963;27;21072;-84
2021/11/15 05:07:53;;;;;;;57.25;38.30;;;7.00;1.00;;;;;;5108889;27;20325;-86
2021/11/15 05:10:21;;;;;;;55.03;37.97;;;7.00;1.00;;;;;;5128384;27;20270;-84
2021/11/15 05:12:49;;;;;;;56.13;37.92;;;7.00;1.00;;;;;;5130795;27;20292;-83
2021/11/15 05:15:19;;;;;;;52.50;34.58;;;7.00;1.00;;;;;;5114000;27;20234;-82
2021/11/15 05:17:47;;;;;;;52.28;35.05;;;6.90;1.00;;;;;;5113718;27;22534;-86
2021/11/15 05:20:14;;;;;;;65.10;38.40;;;6.90;1.00;;;;;;5112424;27;20276;-83
2021/11/15 05:22:41;;;;;;;54.80;35.90;;;7.00;1.00;;;;;;5111431;27;20234;-83
2021/11/15 05:25:09;;;;;;;58.28;37.03;;;7.00;1.00;;;;;;5113935;27;20292;-78
2021/11/15 05:27:38;;;;;;;58.70;37.90;;;7.00;1.00;;;;;;5112868;27;20242;-76
2021/11/15 05:30:09;;;;;;;51.28;34.95;;;7.00;1.00;;;;;;5110036;27;20658;-78
2021/11/15 05:32:36;;;;;;;52.03;34.78;;;7.00;1.00;;;;;;5110783;27;20215;-76
2021/11/15 05:35:04;;;;;;;54.63;35.88;;;7.00;1.00;;;;;;5112177;27;20238;-78
2021/11/15 05:37:31;;;;;;;60.38;37.45;;;7.10;1.00;;;;;;5093736;27;20227;-78
2021/11/15 05:39:58;;;;;;;57.00;36.67;;;7.10;1.00;;;;;;5112934;27;21010;-77
2021/11/15 05:42:24;;;;;;;63.22;38.38;;;7.10;1.00;;;;;;5106996;27;20221;-77
2021/11/15 05:44:52;;;;;;;54.17;35.92;;;7.10;1.00;;;;;;5113420;27;20228;-77
2021/11/15 05:47:20;;;;;;;57.38;37.88;;;7.10;1.00;;;;;;5107610;27;20230;-77
2021/11/15 05:49:47;;;;;;;55.63;36.75;;;7.00;1.00;;;;;;5094927;27;20212;-77
2021/11/15 05:52:15;;;;;;;58.15;36.08;;;7.00;1.00;;;;;;5109693;27;20211;-78
2021/11/15 05:54:42;;;;;;;54.75;36.03;;;7.00;1.00;;;;;;5110163;27;20313;-79
2021/11/15 05:57:08;;;;;;;54.42;37.22;;;7.10;1.00;;;;;;5111814;27;20222;-78
2021/11/15 05:59:37;;;;;;;53.83;36.70;;;7.10;1.00;;;;;;5109219;27;20218;-78
2021/11/15 06:02:04;;;;;;;50.72;36.50;;;7.10;1.00;;;;;;5113445;27;21301;-78
2021/11/15 06:04:32;;;;;;;50.90;35.83;;;7.10;1.00;;;;;;5091374;27;20219;-77
2021/11/15 06:06:59;;;;;;;56.55;36.80;;;7.10;1.00;;;;;;5113755;27;20234;-77
2021/11/15 06:09:25;;;;;;;53.03;36.88;;;7.10;1.00;;;;;;5113802;27;20225;-78
2021/11/15 06:11:53;;;;;;;56.47;36.88;;;7.10;1.00;;;;;;5120004;27;20230;-86
2021/11/15 06:14:21;;;;;;;59.80;38.15;;;7.10;1.00;;;;;;5116374;27;20708;-78
2021/11/15 06:16:47;;;;;;;53.47;36.75;;;7.10;1.00;;;;;;5095854;27;20223;-80
2021/11/15 06:19:14;;;;;;;53.60;36.55;;;7.10;1.00;;;;;;5122962;27;20371;-79
2021/11/15 06:21:42;;;;;;;58.72;35.67;;;7.00;1.00;;;;;;5121416;27;20226;-78
2021/11/15 06:24:09;;;;;;;52.85;37.42;;;7.10;1.00;;;;;;5125790;27;20215;-82
2021/11/15 06:26:36;;;;;;;48.50;34.80;;;7.10;1.00;;;;;;5121124;27;20889;-77
2021/11/15 06:29:03;;;;;;;54.85;37.42;;;7.10;1.00;;;;;;5120989;27;20283;-82
2021/11/15 06:31:30;;;;;;;60.88;39.83;;;7.20;1.00;;;;;;5100074;27;20323;-78
2021/11/15 06:33:57;;;;;;;54.88;36.30;;;7.20;1.00;;;;;;5115290;27;20287;-77
2021/11/15 06:36:24;;;;;;;60.10;38.90;;;7.20;1.00;;;;;;5111051;27;20226;-79
2021/11/15 06:38:55;;;;;;;53.67;35.55;;;7.20;1.00;;;;;;5118255;27;21002;-77
2021/11/15 06:41:23;;;;;;;47.63;33.67;;;7.30;1.00;;;;;;5109715;27;20234;-78
2021/11/15 06:43:49;;;;;;;49.42;35.22;;;7.40;1.00;;;;;;5116352;27;20219;-78
2021/11/15 06:46:16;;;;;;;48.80;32.67;;;7.40;1.00;;;;;;5120226;27;20675;-77
2021/11/15 06:48:45;;;;;;;49.85;35.72;;;7.40;1.00;;;;;;5116446;27;20255;-78
2021/11/15 06:51:12;;;;;;;50.35;34.47;;;7.30;1.00;;;;;;5126595;27;20226;-78
2021/11/15 06:53:40;;;;;;;49.45;34.08;;;7.30;1.00;;;;;;5110330;27;20220;-78
2021/11/15 06:56:08;;;;;;;48.67;32.22;;;7.30;1.00;;;;;;5110330;27;20230;-78
2021/11/15 06:58:36;;;;;;;58.58;36.83;;;7.30;1.00;;;;;;5115413;27;20287;-76
2021/11/15 07:01:05;;;;;;;50.33;34.53;;;7.30;1.00;;;;;;5115066;27;20248;-78
2021/11/15 07:03:32;;;;;;;47.35;33.95;;;7.30;1.00;;;;;;5115447;27;20234;-78
2021/11/15 07:05:59;;;;;;;49.60;32.83;;;7.30;1.00;;;;;;5117769;27;20307;-80
2021/11/15 07:08:26;;;;;;;49.40;33.92;;;7.30;1.00;;;;;;5115877;27;20231;-78
2021/11/15 07:10:53;;;;;;;49.03;32.22;;;7.30;1.00;;;;;;5115627;27;20230;-78
2021/11/15 07:13:21;;;;;;;48.38;33.35;;;7.30;1.00;;;;;;5115910;27;20283;-77
2021/11/15 07:15:49;;;;;;;52.92;32.42;;;7.30;1.00;;;;;;5108852;27;20630;-78
2021/11/15 07:18:16;;;;;;;45.35;31.73;;;7.40;1.00;;;;;;5113809;27;20306;-78
2021/11/15 07:20:43;;;;;;;43.42;31.50;;;7.40;1.00;;;;;;5107139;27;20284;-76
2021/11/15 07:23:10;;;;;;;46.90;30.42;;;7.40;1.00;;;;;;5117735;27;20354;-78
2021/11/15 07:25:37;;;;;;;43.40;30.35;;;7.40;1.00;;;;;;5119462;27;20275;-77
2021/11/15 07:28:04;;;;;;;45.88;30.45;;;7.40;1.00;;;;;;5113594;27;20219;-77
2021/11/15 07:30:32;;;;;;;42.83;28.30;;;7.40;1.00;;;;;;5111193;27;20215;-77
2021/11/15 07:33:00;;;;;;;42.30;28.85;;;7.40;1.00;;;;;;5111049;27;22166;-77
2021/11/15 07:35:27;;;;;;;52.13;32.30;;;7.40;1.00;;;;;;5095582;27;20243;-78
2021/11/15 07:37:54;;;;;;;43.08;29.13;;;7.40;1.00;;;;;;5109389;27;20228;-77
2021/11/15 07:40:21;;;;;;;42.63;28.42;;;7.40;1.00;;;;;;5109818;27;20568;-77
2021/11/15 07:42:48;;;;;;;46.92;30.33;;;7.30;1.00;;;;;;5112491;27;20707;-77
2021/11/15 07:45:15;;;;;;;41.92;28.58;;;7.30;1.00;;;;;;5111662;27;20231;-77
2021/11/15 07:47:43;;;;;;;47.28;30.00;;;7.30;1.00;;;;;;5112045;27;20243;-76
2021/11/15 07:50:12;;;;;;;41.08;27.30;;;7.30;1.00;;;;;;5111370;27;20215;-77
2021/11/15 07:52:39;;;;;;;42.45;30.95;;;7.20;1.00;;;;;;5118236;27;20249;-77
2021/11/15 07:55:07;;;;;;;40.63;27.92;;;7.30;1.00;;;;;;5110515;27;20616;-77
2021/11/15 07:57:36;;;;;;;50.28;27.90;;;7.20;1.00;;;;;;5107753;27;20243;-77
2021/11/15 08:00:04;;;;;;;38.63;27.95;;;7.30;1.00;;;;;;5105329;27;20309;-78
2021/11/15 08:02:31;;;;;;;39.75;26.63;;;7.30;1.00;;;;;;5113979;27;20279;-76
2021/11/15 08:04:59;;;;;;;41.75;28.42;;;7.40;1.00;;;;;;5110739;27;20228;-76
2021/11/15 08:07:25;;;;;;;41.50;26.33;;;7.30;1.00;;;;;;5112310;27;20218;-76
2021/11/15 08:09:52;;;;;;;44.50;26.08;;;7.30;1.00;;;;;;5112012;27;20715;-77
2021/11/15 08:12:21;;;;;;;41.88;27.60;;;7.40;1.00;;;;;;5105480;27;20990;-77
2021/11/15 08:14:48;;;;;;;39.55;26.30;;;7.40;1.00;;;;;;5108387;27;20231;-77
2021/11/15 08:17:15;;;;;;;40.97;28.27;;;7.40;1.00;;;;;;5090542;27;20239;-76
2021/11/15 08:19:42;;;;;;;40.95;27.00;;;7.50;1.00;;;;;;5107779;27;20218;-78
2021/11/15 08:22:10;;;;;;;38.88;25.50;;;7.50;1.00;;;;;;5112975;27;20242;-76
2021/11/15 08:25:37;;;;;;;39.60;25.80;;;7.50;1.00;;;;;;5110810;27;20214;-76
2021/11/15 08:28:04;;;;;;;40.92;25.95;;;7.40;1.00;;;;;;5102387;27;20342;-78
2021/11/15 08:30:33;;;;;;;38.95;24.55;;;7.50;1.00;;;;;;5112995;27;20227;-77
2021/11/15 08:36:24;;;;;;;40.35;25.63;;;7.60;1.00;;;;;;5108380;27;21002;-78
2021/11/15 08:38:59;;;;;;;37.58;24.85;;;7.60;1.00;;;;;;5116073;27;20226;-77
2021/11/15 08:41:29;;;;;;;38.55;26.02;;;7.50;1.00;;;;;;5092672;27;20227;-77
2021/11/15 08:43:57;;;;;;;36.38;24.70;;;7.60;1.00;;;;;;5108957;27;20998;-77
2021/11/15 08:46:26;;;;;;;38.38;26.88;;;7.80;1.00;;;;;;5113926;27;20331;-77
2021/11/15 08:48:54;;;;;;;37.55;24.50;;;7.90;1.00;;;;;;5111426;27;20333;-77
2021/11/15 08:51:22;;;;;;;33.13;22.63;;;7.90;1.00;;;;;;5110507;27;20518;-79
2021/11/15 08:53:50;;;;;;;38.08;26.30;;;7.70;1.00;;;;;;5116996;27;20238;-77
2021/11/15 08:56:19;;;;;;;37.42;25.00;;;7.60;1.00;;;;;;5099501;27;20288;-77
2021/11/15 08:58:46;;;;;;;40.63;24.67;;;7.60;1.00;;;;;;5123474;27;20212;-77
2021/11/15 09:01:15;;;;;;;35.72;24.45;;;7.60;1.00;;;;;;5118421;27;20239;-78
2021/11/15 09:03:44;;;;;;;34.13;24.67;;;7.60;1.00;;;;;;5120786;27;20802;-77
2021/11/15 09:06:12;;;;;;;35.80;24.95;;;7.60;1.00;;;;;;5110388;27;20223;-80
2021/11/15 09:08:40;;;;;;;41.28;27.20;;;7.50;1.00;;;;;;5116484;27;20227;-77
2021/11/15 09:11:08;;;;;;;39.20;25.48;;;7.40;1.00;;;;;;5119788;27;20222;-78
2021/11/15 09:13:38;;;;;;;41.25;25.95;;;7.40;1.00;;;;;;5118534;27;20229;-77
2021/11/15 09:16:06;;;;;;;36.58;25.40;;;7.30;1.00;;;;;;5114293;27;20235;-77
2021/11/15 09:18:33;;;;;;;33.90;26.00;;;7.30;1.00;;;;;;5119704;27;20234;-78
2021/11/15 09:21:00;;;;;;;38.75;26.65;;;7.40;1.00;;;;;;5116685;27;20221;-78
2021/11/15 09:23:29;;;;;;;44.10;26.00;;;7.40;1.00;;;;;;5119829;27;21080;-78
2021/11/15 09:25:56;;;;;;;37.35;26.10;;;7.40;1.00;;;;;;5117942;27;21087;-78
2021/11/15 09:28:23;;;;;;;39.78;26.52;;;7.40;1.00;;;;;;5118041;27;20266;-79
2021/11/15 09:30:51;;;;;;;43.65;29.10;;;7.30;1.00;;;;;;5114959;27;20219;-78
2021/11/15 09:33:18;;;;;;;40.38;26.90;;;7.30;1.00;;;;;;5113144;27;20899;-78
2021/11/15 09:35:49;;;;;;;41.65;27.95;;;7.40;1.00;;;;;;5109860;27;20231;-78
2021/11/15 09:38:18;;;;;;;39.15;26.15;;;7.50;1.00;;;;;;5104029;27;20219;-77
2021/11/15 09:40:48;;;;;;;41.47;26.95;;;7.50;1.00;;;;;;5107805;27;20296;-79
2021/11/15 09:43:16;;;;;;;40.28;27.13;;;7.40;1.00;;;;;;5114661;27;20770;-77
2021/11/15 09:45:44;;;;;;;37.40;25.45;;;7.40;1.00;;;;;;5107011;27;20273;-78
2021/11/15 09:48:13;;;;;;;37.35;23.65;;;7.50;1.00;;;;;;5096302;27;21011;-77
2021/11/15 09:50:40;;;;;;;39.65;25.85;;;7.50;1.00;;;;;;5108927;27;20230;-78
2021/11/15 09:53:08;;;;;;;38.85;25.30;;;7.50;1.00;;;;;;5089952;27;20239;-77
2021/11/15 09:55:35;;;;;;;43.35;26.27;;;7.50;1.00;;;;;;5112490;27;20335;-78
2021/11/15 09:58:03;;;;;;;39.45;25.98;;;7.40;1.00;;;;;;5108951;27;20235;-77
2021/11/15 10:00:34;;;;;;;33.90;24.10;;;7.40;1.00;;;;;;5106507;27;20841;-77
2021/11/15 10:03:02;;;;;;;36.67;25.27;;;7.50;1.00;;;;;;5111728;27;20217;-79
2021/11/15 10:05:31;;;;;;;41.13;25.10;;;7.50;1.00;;;;;;5109547;27;21383;-77
2021/11/15 10:07:59;;;;;;;34.83;25.00;;;7.50;1.00;;;;;;5122872;27;20676;-78
2021/11/15 10:10:38;;;;;;;37.30;25.88;;;7.40;1.00;;;;;;5089778;27;20271;-78
2021/11/15 10:13:14;;;;;;;38.72;24.25;;;7.50;1.00;;;;;;5110214;27;20223;-77
2021/11/15 10:15:47;;;;;;;40.53;25.10;;;7.50;1.00;;;;;;5109601;27;21394;-80
2021/11/15 10:18:19;;;;;;;42.70;23.80;;;7.50;1.00;;;;;;5111015;27;20249;-77
2021/11/15 10:20:51;;;;;;;37.78;25.90;;;7.50;1.00;;;;;;5111788;27;20223;-80
2021/11/15 10:23:30;;;;;;;36.42;26.70;;;7.50;1.00;;;;;;5111004;27;20218;-76
2021/11/15 10:26:00;;;;;;;36.13;24.27;;;7.50;1.00;;;;;;5113099;27;20229;-78
2021/11/15 10:28:30;;;;;;;36.70;24.20;;;7.60;1.00;;;;;;5110210;27;20355;-78
2021/11/15 10:30:57;;;;;;;45.13;33.03;;;7.60;1.00;;;;;;5110710;27;21001;-76
2021/11/15 10:33:35;;;;;;;38.10;23.65;;;7.60;1.00;;;;;;5110712;27;21008;-77
2021/11/15 10:36:04;;;;;;;36.88;25.30;;;7.50;1.00;;;;;;5114015;27;20245;-78
2021/11/15 10:38:46;;;;;;;34.47;23.08;;;7.50;1.00;;;;;;5109644;27;20293;-78
2021/11/15 10:41:18;;;;;;;35.25;24.30;;;7.40;1.00;;;;;;5111147;27;20261;-77
2021/11/15 10:43:47;;;;;;;32.30;22.65;;;7.40;1.00;;;;;;5118620;27;20317;-80
2021/11/15 10:46:30;;;;;;;38.53;25.55;;;7.40;1.00;;;;;;5118751;27;20215;-78
2021/11/15 10:48:58;;;;;;;37.65;25.30;;;7.40;1.00;;;;;;5111361;27;20226;-78
2021/11/15 10:51:48;;;;;;;35.05;22.83;;;7.40;1.00;;;;;;5115274;27;20223;-78
2021/11/15 10:54:43;;;;;;;38.85;22.70;;;7.50;1.00;;;;;;5111940;27;20226;-78
2021/11/15 10:57:22;;;;;;;31.88;21.40;;;7.40;1.00;;;;;;5116062;27;20231;-78
2021/11/15 11:00:27;;;;;;;36.90;23.63;;;7.50;1.00;;;;;;5119049;27;20314;-77
2021/11/15 11:03:02;;;;;;;34.92;24.13;;;7.50;1.00;;;;;;5117919;27;20215;-78
2021/11/15 11:05:30;;;;;;;34.13;24.45;;;7.50;1.00;;;;;;5118311;27;20251;-78
2021/11/15 11:08:11;;;;;;;30.92;21.77;;;7.50;1.00;;;;;;5114990;27;20227;-77
2021/11/15 11:10:44;;;;;;;32.63;21.77;;;7.40;1.00;;;;;;5115101;27;20311;-78
2021/11/15 11:13:12;;;;;;;33.22;22.25;;;7.40;1.00;;;;;;5117172;27;20223;-77
2021/11/15 11:15:43;;;;;;;30.33;20.65;;;7.50;1.00;;;;;;5113615;27;20234;-76
2021/11/15 11:18:14;;;;;;;31.67;21.92;;;7.60;1.00;;;;;;5112559;27;20282;-77
2021/11/15 11:26:40;;;;;;;29.80;21.15;;;7.70;1.00;;;;;;5118703;27;20291;-78
2021/11/15 11:29:11;;;;;;;27.52;21.45;;;7.70;1.00;;;;;;5115612;27;20300;-76
2021/11/15 11:31:42;;;;;;;33.17;22.67;;;7.60;1.00;;;;;;5117169;27;21160;-78
2021/11/15 11:34:10;;;;;;;33.92;23.85;;;7.60;1.00;;;;;;5119617;27;20262;-77
2021/11/15 11:36:37;;;;;;;28.27;21.27;;;7.60;1.00;;;;;;5115013;27;20227;-76
2021/11/15 11:39:08;;;;;;;29.73;21.08;;;7.70;1.00;;;;;;5115996;27;20309;-76
2021/11/15 11:41:36;;;;;;;28.35;20.73;;;7.70;1.00;;;;;;5119078;27;20323;-78
2021/11/15 11:44:07;;;;;;;31.95;21.23;;;7.70;1.00;;;;;;5119317;27;20974;-77
2021/11/15 11:46:37;;;;;;;36.28;22.45;;;7.70;1.00;;;;;;5119777;27;20220;-77
2021/11/15 11:49:07;;;;;;;30.35;20.10;;;7.70;1.00;;;;;;5117112;27;20223;-77
2021/11/15 11:52:17;;;;;;;29.52;20.48;;;7.70;1.00;;;;;;5114407;27;20215;-76
2021/11/15 11:54:49;;;;;;;29.42;22.25;;;7.80;1.00;;;;;;5085482;27;20332;-77
2021/11/15 11:57:21;;;;;;;37.72;23.00;;;7.80;1.00;;;;;;5114884;27;20253;-77
2021/11/15 12:00:03;;;;;;;36.20;24.15;;;7.80;1.00;;;;;;5114000;27;20925;-77
2021/11/15 12:02:32;;;;;;;30.55;22.55;;;7.80;1.00;;;;;;5115217;27;20226;-77
2021/11/15 12:05:03;;;;;;;32.70;22.50;;;7.80;1.00;;;;;;5113535;27;20224;-78
2021/11/15 12:07:32;;;;;;;34.15;23.05;;;7.80;1.00;;;;;;5112988;27;20305;-77
2021/11/15 12:10:08;;;;;;;35.10;23.85;;;7.70;1.00;;;;;;5108698;27;20731;-78
2021/11/15 12:12:57;;;;;;;33.17;22.35;;;7.70;1.00;;;;;;5108245;27;20247;-77
2021/11/15 12:15:44;;;;;;;36.63;23.55;;;7.70;1.00;;;;;;5111086;27;20715;-77
2021/11/15 12:18:19;;;;;;;33.30;23.35;;;7.70;1.00;;;;;;5112689;27;20262;-76
2021/11/15 12:21:09;;;;;;;33.42;23.50;;;7.60;1.00;;;;;;5117398;27;20230;-77
2021/11/15 12:23:38;;;;;;;32.03;22.98;;;7.60;1.00;;;;;;5118546;27;20229;-76
2021/11/15 12:26:09;;;;;;;31.95;22.38;;;7.60;1.00;;;;;;5119422;27;20266;-76
2021/11/15 12:28:38;;;;;;;37.97;24.38;;;7.60;1.00;;;;;;5120142;27;20235;-76
2021/11/15 12:31:07;;;;;;;38.50;25.98;;;7.60;1.00;;;;;;5117567;27;20258;-76
2021/11/15 12:33:35;;;;;;;31.38;23.13;;;7.70;1.00;;;;;;5119499;27;20216;-76
2021/11/15 12:36:08;;;;;;;32.35;22.85;;;7.70;1.00;;;;;;5110533;27;20283;-77
2021/11/15 12:38:45;;;;;;;34.75;23.92;;;7.60;1.00;;;;;;5112440;27;21009;-76
2021/11/15 12:41:38;;;;;;;36.35;23.67;;;7.60;1.00;;;;;;5112285;27;20336;-77
2021/11/15 12:44:30;;;;;;;35.78;23.42;;;7.60;1.00;;;;;;5109006;27;20314;-76
2021/11/15 12:47:00;;;;;;;30.70;22.52;;;7.50;1.00;;;;;;5111685;27;20242;-76
2021/11/15 12:49:36;;;;;;;40.95;23.30;;;7.50;1.00;;;;;;5106761;27;20231;-77
2021/11/15 12:52:23;;;;;;;30.20;22.05;;;7.50;1.00;;;;;;5110254;27;20219;-76
2021/11/15 12:55:12;;;;;;;34.25;23.13;;;7.60;1.00;;;;;;5105582;27;20223;-77
2021/11/15 12:57:44;;;;;;;36.03;22.55;;;7.60;1.00;;;;;;5102147;27;20238;-76
2021/11/15 13:00:24;;;;;;;32.60;21.33;;;7.60;1.00;;;;;;5107283;27;20211;-77
2021/11/15 13:02:55;;;;;;;34.63;22.98;;;7.60;1.00;;;;;;5103281;27;21080;-77
2021/11/15 13:05:24;;;;;;;36.88;24.85;;;7.60;1.00;;;;;;5102693;27;20322;-76
2021/11/15 13:07:52;;;;;;;33.38;23.55;;;7.70;1.00;;;;;;5107264;27;20770;-77
2021/11/15 13:10:19;;;;;;;33.95;23.50;;;7.70;1.00;;;;;;5109387;27;21981;-76